This is the latest recevied weather packets stored in our database for station/object YO4TNV-15. If no packets are shown the sender has not sent any weather packets the latest 10 day(s).
| Time | Temp. | Humidity | Pressure | Rain* | Wind** | Luminosity | Snow |
|---|---|---|---|---|---|---|---|
| 1777773142 | 4.44° C | 64% | 1009.1 hPa | - | - | - | - |
| 1777772252 | 5° C | 61% | 1009.1 hPa | - | - | - | - |
| 1777772242 | 5° C | 61% | 1009.1 hPa | - | - | - | - |
| 1777771352 | 5.56° C | 61% | 1009.1 hPa | - | - | - | - |
| 1777771342 | 5.56° C | 61% | 1009.1 hPa | - | - | - | - |
| 1777770442 | 6.11° C | 58% | 1009.2 hPa | - | - | - | - |
| 1777769553 | 6.11° C | 57% | 1009.2 hPa | - | - | - | - |
| 1777769541 | 6.11° C | 57% | 1009.2 hPa | - | - | - | - |
| 1777768652 | 6.67° C | 55% | 1009.1 hPa | - | - | - | - |
| 1777768641 | 6.67° C | 55% | 1009.1 hPa | - | - | - | - |
| 1777767752 | 7.22° C | 55% | 1009.2 hPa | - | - | - | - |
| 1777767741 | 7.22° C | 55% | 1009.2 hPa | - | - | - | - |
| 1777766848 | 7.22° C | 57% | 1009.2 hPa | - | - | - | - |
| 1777765952 | 6.67° C | 56% | 1009.3 hPa | - | - | - | - |
| 1777765940 | 6.67° C | 56% | 1009.3 hPa | - | - | - | - |
| 1777765048 | 6.67° C | 56% | 1009.3 hPa | - | - | - | - |
| 1777765039 | 6.67° C | 56% | 1009.3 hPa | - | - | - | - |
| 1777764139 | 7.22° C | 54% | 1009.3 hPa | - | - | - | - |
| 1777763247 | 7.78° C | 51% | 1009.5 hPa | - | - | - | - |
| 1777763239 | 7.78° C | 51% | 1009.5 hPa | - | - | - | - |
| 1777762339 | 8.33° C | 50% | 1009.5 hPa | - | - | - | - |
| 1777761447 | 7.78° C | 50% | 1009.7 hPa | - | - | - | - |
| 1777761439 | 7.78° C | 50% | 1009.7 hPa | - | - | - | - |
| 1777760539 | 7.78° C | 47% | 1009.7 hPa | - | - | - | - |
| 1777759647 | 8.33° C | 43% | 1009.8 hPa | - | - | - | - |
* Rain since midnight (hover to see other rain measurements)
** Current wind speed in m/s (hover to see current wind gust speed)